Time;durP1;ratioP1;P1;durP2;ratioP2;P2;SDS_P1;SDS_P2;PMS_P1;PMS_P2;Temp;Humidity;BMP_temperature;BMP_pressure;BME280_temperature;BME280_humidity;BME280_pressure;Samples;Min_cycle;Max_cycle;Signal;HPM_P1;HPM_P2
2022/05/16 00:02:05;;;;;;;;;;;;;;;16.26;54.09;151739.70;1736037;81;20166;-60
2022/05/16 00:04:32;;;;;;;;;;;;;;;16.24;54.34;151734.45;1735931;82;20183;-59
2022/05/16 00:06:59;;;;;;;;;;;;;;;16.27;54.23;151742.31;1736267;82;20095;-60
2022/05/16 00:09:25;;;;;;;;;;;;;;;16.27;54.35;151742.31;1735529;81;20380;-60
2022/05/16 00:11:52;;;;;;;;;;;;;;;16.29;54.24;151747.52;1740430;82;21119;-59
2022/05/16 00:14:19;;;;;;;;;;;;;;;16.25;54.33;151735.78;1745396;82;20135;-59
2022/05/16 00:16:48;;;;;;;;;;;;;;;16.22;54.58;151729.25;1744830;82;20163;-59
2022/05/16 00:19:14;;;;;;;;;;;;;;;16.19;54.64;151721.44;1745381;82;20135;-60
2022/05/16 00:21:42;;;;;;;;;;;;;;;16.18;54.89;151720.16;1744978;82;20182;-59
2022/05/16 00:24:09;;;;;;;;;;;;;;;16.20;54.79;151724.03;1745516;82;21223;-60
2022/05/16 00:26:36;;;;;;;;;;;;;;;16.15;55.05;151711.03;1745053;81;20499;-60
2022/05/16 00:29:03;;;;;;;;;;;;;;;16.16;55.05;151714.95;1745292;82;20602;-60
2022/05/16 00:31:30;;;;;;;;;;;;;;;16.11;55.23;151700.61;1744878;82;20431;-61
2022/05/16 00:33:56;;;;;;;;;;;;;;;16.12;55.27;151703.22;1744855;81;20538;-59
2022/05/16 00:36:24;;;;;;;;;;;;;;;16.04;55.22;151685.00;1744645;82;21638;-60
2022/05/16 00:38:53;;;;;;;;;;;;;;;15.94;55.42;151658.91;1744855;82;20435;-59
2022/05/16 00:41:19;;;;;;;;;;;;;;;15.86;55.59;151638.05;1744782;81;20139;-61
2022/05/16 00:43:59;;;;;;;;;;;;;;;15.83;55.63;151630.23;1744327;82;20186;-61
2022/05/16 00:46:25;;;;;;;;;;;;;;;15.78;55.49;151617.17;1742748;82;20403;-59
2022/05/16 00:48:52;;;;;;;;;;;;;;;15.68;55.63;151592.42;1744782;82;21082;-60
2022/05/16 00:51:22;;;;;;;;;;;;;;;15.61;55.89;151575.53;1744753;82;20431;-60
2022/05/16 00:53:51;;;;;;;;;;;;;;;15.51;56.31;151550.78;1745088;82;20137;-60
2022/05/16 00:56:17;;;;;;;;;;;;;;;15.41;56.70;151526.05;1745256;82;20470;-60
2022/05/16 00:58:46;;;;;;;;;;;;;;;15.33;56.98;151505.19;1744618;82;20712;-60
2022/05/16 01:06:45;;;;;;;;;;;;;;;15.25;56.45;151485.69;1745314;82;20206;-60
2022/05/16 01:09:12;;;;;;;;;;;;;;;15.30;55.79;151498.70;1745876;82;20478;-60
2022/05/16 01:11:40;;;;;;;;;;;;;;;15.35;55.72;151509.11;1745454;82;20503;-62
2022/05/16 01:14:07;;;;;;;;;;;;;;;15.41;55.24;151526.05;1746802;82;21130;-60
2022/05/16 01:16:35;;;;;;;;;;;;;;;15.41;55.24;151526.05;1746445;82;20150;-60
2022/05/16 01:19:02;;;;;;;;;;;;;;;15.38;55.33;151518.23;1717410;82;20449;-60
2022/05/16 01:21:38;;;;;;;;;;;;;;;15.34;55.37;151507.78;1746601;82;20565;-60
2022/05/16 01:24:13;;;;;;;;;;;;;;;15.26;55.41;151488.30;1746851;81;20205;-59
2022/05/16 01:26:41;;;;;;;;;;;;;;;15.22;55.31;151476.56;1745759;82;21176;-60
2022/05/16 01:29:09;;;;;;;;;;;;;;;15.17;55.39;151466.16;1746563;82;20225;-59
2022/05/16 01:31:36;;;;;;;;;;;;;;;15.14;55.25;151458.34;1746327;81;20914;-60
2022/05/16 01:34:03;;;;;;;;;;;;;;;15.10;55.35;151447.91;1746129;82;20999;-60
2022/05/16 01:36:29;;;;;;;;;;;;;;;15.06;55.28;151437.48;1745728;82;20218;-60
2022/05/16 01:38:56;;;;;;;;;;;;;;;15.02;55.49;151427.09;1745856;82;21266;-60
2022/05/16 01:41:44;;;;;;;;;;;;;;;14.98;55.65;151416.69;1780130;80;20147;-60
2022/05/16 01:44:11;;;;;;;;;;;;;;;14.93;55.80;151403.67;1780671;80;20160;-61
2022/05/16 01:46:40;;;;;;;;;;;;;;;14.87;55.98;151390.63;1780122;80;20179;-60
2022/05/16 01:49:08;;;;;;;;;;;;;;;14.82;56.04;151376.34;1781021;80;20147;-59
2022/05/16 01:51:36;;;;;;;;;;;;;;;14.79;56.23;151369.81;1780684;80;21193;-60
2022/05/16 01:54:04;;;;;;;;;;;;;;;14.74;56.35;151356.81;1780970;80;20216;-60
2022/05/16 01:56:32;;;;;;;;;;;;;;;14.69;56.50;151343.72;1780652;80;20170;-60
2022/05/16 01:58:59;;;;;;;;;;;;;;;14.65;56.57;151333.31;1780245;80;20187;-61
2022/05/16 02:01:26;;;;;;;;;;;;;;;14.60;56.79;151322.91;1779970;80;20227;-60
2022/05/16 02:03:53;;;;;;;;;;;;;;;14.56;56.91;151312.50;1779874;80;21232;-60
2022/05/16 02:06:20;;;;;;;;;;;;;;;14.51;57.18;151299.50;1780030;80;20144;-61
2022/05/16 02:08:48;;;;;;;;;;;;;;;14.47;57.44;151289.05;1780197;79;20183;-61
2022/05/16 02:11:14;;;;;;;;;;;;;;;14.40;57.69;151272.17;1776736;80;20138;-60
2022/05/16 02:13:42;;;;;;;;;;;;;;;14.35;57.96;151259.12;1765940;81;20177;-60
2022/05/16 02:16:09;;;;;;;;;;;;;;;14.29;58.21;151244.84;1766577;81;20624;-60
2022/05/16 02:18:36;;;;;;;;;;;;;;;14.26;58.50;151237.05;1766270;81;20251;-60
2022/05/16 02:26:35;;;;;;;;;;;;;;;14.10;59.14;151195.41;1765943;81;20189;-59
2022/05/16 02:29:02;;;;;;;;;;;;;;;14.02;59.46;151175.87;1766373;81;21236;-60
2022/05/16 02:31:29;;;;;;;;;;;;;;;13.95;59.62;151158.97;1765942;81;20365;-60
2022/05/16 02:33:56;;;;;;;;;;;;;;;13.89;59.99;151143.38;1765990;81;20177;-59
2022/05/16 02:36:23;;;;;;;;;;;;;;;13.84;60.19;151131.66;1766143;81;20188;-60
2022/05/16 02:38:49;;;;;;;;;;;;;;;13.80;60.38;151121.25;1766228;81;20173;-60
2022/05/16 02:41:16;;;;;;;;;;;;;;;13.75;60.50;151109.53;1760368;81;20611;-60
2022/05/16 02:43:43;;;;;;;;;;;;;;;13.72;60.62;151101.73;1757545;81;20137;-60
2022/05/16 02:46:10;;;;;;;;;;;;;;;13.72;60.72;151101.73;1758064;81;20403;-60
2022/05/16 02:48:38;;;;;;;;;;;;;;;13.69;60.91;151093.94;1758169;81;20472;-59
2022/05/16 02:51:06;;;;;;;;;;;;;;;13.69;60.97;151093.94;1758136;81;20178;-60
2022/05/16 02:53:33;;;;;;;;;;;;;;;13.67;61.16;151088.75;1757581;81;21909;-60
2022/05/16 02:56:00;;;;;;;;;;;;;;;13.66;61.19;151086.14;1758197;81;20228;-60
2022/05/16 02:58:27;;;;;;;;;;;;;;;13.66;61.31;151086.14;1758262;81;20167;-60
2022/05/16 03:00:54;;;;;;;;;;;;;;;13.67;61.27;151088.75;1757719;81;21251;-60
2022/05/16 03:03:21;;;;;;;;;;;;;;;13.69;61.21;151093.94;1758009;81;20138;-60
2022/05/16 03:05:48;;;;;;;;;;;;;;;13.74;61.00;151106.94;1757789;81;21207;-59
2022/05/16 03:08:14;;;;;;;;;;;;;;;13.79;60.84;151117.33;1758357;81;20130;-60
2022/05/16 03:10:43;;;;;;;;;;;;;;;13.84;60.67;151130.38;1758329;80;20192;-60
2022/05/16 03:13:10;;;;;;;;;;;;;;;13.89;60.57;151143.38;1775732;80;20153;-60
2022/05/16 03:15:37;;;;;;;;;;;;;;;13.95;60.44;151158.97;1775150;80;20188;-62
2022/05/16 03:18:03;;;;;;;;;;;;;;;14.00;60.34;151170.69;1775695;80;20861;-60
2022/05/16 03:20:31;;;;;;;;;;;;;;;14.04;60.26;151182.41;1774908;79;20223;-60
2022/05/16 03:22:58;;;;;;;;;;;;;;;14.14;60.01;151205.81;1775258;80;20508;-60
2022/05/16 03:25:25;;;;;;;;;;;;;;;14.20;59.85;151221.41;1774923;80;20104;-60
2022/05/16 03:27:52;;;;;;;;;;;;;;;14.23;59.58;151229.20;1774595;79;20721;-60
2022/05/16 03:30:19;;;;;;;;;;;;;;;14.26;59.57;151237.05;1775138;80;20191;-60
2022/05/16 03:32:46;;;;;;;;;;;;;;;14.29;59.50;151244.84;1774084;79;20371;-60
2022/05/16 03:35:12;;;;;;;;;;;;;;;14.35;59.57;151257.84;1774699;79;20197;-60
2022/05/16 03:37:39;;;;;;;;;;;;;;;14.48;59.22;151291.70;1774332;80;20472;-60
2022/05/16 03:42:53;;;;;;;;;;;;;;;14.71;58.51;151349.00;1796952;79;21127;-59
2022/05/16 03:45:20;;;;;;;;;;;;;;;14.82;58.28;151377.62;1794268;78;20120;-60
2022/05/16 03:47:47;;;;;;;;;;;;;;;14.94;58.05;151406.28;1797151;79;20146;-60
2022/05/16 03:50:14;;;;;;;;;;;;;;;15.02;57.65;151427.09;1797347;79;20420;-60
2022/05/16 03:52:41;;;;;;;;;;;;;;;15.13;57.35;151455.70;1796952;78;20455;-60
2022/05/16 03:55:09;;;;;;;;;;;;;;;15.23;56.94;151479.16;1797836;79;21115;-60
2022/05/16 03:57:36;;;;;;;;;;;;;;;15.34;56.56;151507.78;1797561;79;20691;-60
2022/05/16 04:00:04;;;;;;;;;;;;;;;15.44;56.37;151533.84;1797929;78;20464;-60
2022/05/16 04:02:33;;;;;;;;;;;;;;;15.58;56.25;151569.00;1796475;78;20179;-61
2022/05/16 04:05:00;;;;;;;;;;;;;;;15.74;55.75;151609.36;1797983;79;20198;-61
2022/05/16 04:07:27;;;;;;;;;;;;;;;15.89;55.42;151645.91;1797857;78;21124;-61
2022/05/16 04:09:53;;;;;;;;;;;;;;;16.04;54.97;151685.00;1797685;78;20195;-60
2022/05/16 04:12:20;;;;;;;;;;;;;;;16.18;54.29;151720.16;1773459;79;20166;-60
2022/05/16 04:14:49;;;;;;;;;;;;;;;16.30;54.02;151750.12;1762821;81;20150;-60
2022/05/16 04:17:16;;;;;;;;;;;;;;;16.44;53.29;151783.97;1763124;81;20171;-62
2022/05/16 04:19:43;;;;;;;;;;;;;;;16.57;52.82;151817.88;1762626;81;21751;-60
2022/05/16 04:22:10;;;;;;;;;;;;;;;16.76;52.44;151864.78;1762664;81;20728;-59
2022/05/16 04:24:37;;;;;;;;;;;;;;;16.93;51.72;151906.52;1763129;81;20808;-60
2022/05/16 04:27:04;;;;;;;;;;;;;;;17.12;51.09;151956.05;1762870;81;20181;-60
2022/05/16 04:29:31;;;;;;;;;;;;;;;17.29;50.23;151999.11;1762907;81;20383;-59
2022/05/16 04:31:59;;;;;;;;;;;;;;;17.47;49.83;152043.45;1763085;81;21217;-59
2022/05/16 04:34:26;;;;;;;;;;;;;;;17.62;49.35;152081.25;1763017;81;20169;-60
2022/05/16 04:36:53;;;;;;;;;;;;;;;17.71;48.69;152104.70;1762727;81;20192;-61
2022/05/16 04:39:19;;;;;;;;;;;;;;;17.82;48.53;152130.81;1763022;81;20192;-60
2022/05/16 04:44:36;;;;;;;;;;;;;;;17.89;47.88;152149.06;1727830;81;21128;-59
2022/05/16 04:47:03;;;;;;;;;;;;;;;17.89;47.95;152149.06;1727655;81;20311;-61
2022/05/16 04:49:30;;;;;;;;;;;;;;;17.90;48.38;152151.67;1728261;82;20173;-61
2022/05/16 04:51:58;;;;;;;;;;;;;;;17.95;47.78;152164.70;1727702;83;20188;-60
2022/05/16 04:54:25;;;;;;;;;;;;;;;17.98;47.83;152171.23;1728282;82;20184;-60
2022/05/16 04:56:52;;;;;;;;;;;;;;;18.04;47.82;152188.25;1728103;83;21138;-60
2022/05/16 04:59:19;;;;;;;;;;;;;;;18.10;47.88;152201.28;1728297;83;20285;-59
2022/05/16 05:01:48;;;;;;;;;;;;;;;18.12;47.89;152207.78;1727982;83;20187;-61
2022/05/16 05:04:15;;;;;;;;;;;;;;;18.17;47.76;152219.53;1727415;83;20169;-61
2022/05/16 05:06:42;;;;;;;;;;;;;;;18.18;47.79;152222.14;1727996;83;20207;-59
2022/05/16 05:09:09;;;;;;;;;;;;;;;18.27;47.55;152244.33;1727919;83;21304;-60
2022/05/16 05:16:51;;;;;;;;;;;;;;;18.28;47.14;152248.25;1774508;79;20229;-60
2022/05/16 05:19:18;;;;;;;;;;;;;;;18.38;47.15;152271.72;1775059;80;20397;-60
2022/05/16 05:21:45;;;;;;;;;;;;;;;18.42;46.71;152282.16;1774594;80;21134;-60
2022/05/16 05:24:12;;;;;;;;;;;;;;;18.40;46.73;152276.94;1774894;79;20450;-60
2022/05/16 05:26:39;;;;;;;;;;;;;;;18.49;46.83;152300.44;1774383;79;20196;-60
2022/05/16 05:29:06;;;;;;;;;;;;;;;18.63;46.49;152334.34;1774589;79;20184;-60
2022/05/16 05:31:33;;;;;;;;;;;;;;;18.71;46.04;152356.53;1774391;79;20201;-60
2022/05/16 05:34:01;;;;;;;;;;;;;;;18.82;46.18;152382.66;1774417;79;21196;-61
2022/05/16 05:36:29;;;;;;;;;;;;;;;18.94;45.83;152412.67;1774655;79;20416;-59
2022/05/16 05:38:58;;;;;;;;;;;;;;;19.06;45.66;152444.02;1774396;80;20224;-60
2022/05/16 05:41:25;;;;;;;;;;;;;;;19.23;45.51;152485.80;1782767;79;20598;-60
2022/05/16 05:43:51;;;;;;;;;;;;;;;19.40;45.22;152530.20;1797097;79;20203;-60
2022/05/16 05:46:18;;;;;;;;;;;;;;;19.50;43.95;152555.00;1797889;78;21863;-60
2022/05/16 05:48:45;;;;;;;;;;;;;;;19.59;43.83;152577.20;1797765;78;20162;-60
2022/05/16 05:51:12;;;;;;;;;;;;;;;19.65;43.19;152592.86;1797963;78;20209;-60
2022/05/16 05:53:41;;;;;;;;;;;;;;;19.73;42.62;152612.45;1797499;79;20187;-61
2022/05/16 05:56:08;;;;;;;;;;;;;;;19.84;42.29;152639.87;1797811;78;20523;-60
2022/05/16 05:58:36;;;;;;;;;;;;;;;19.98;41.90;152676.47;1797711;78;21883;-62
2022/05/16 06:01:03;;;;;;;;;;;;;;;20.19;41.53;152728.72;1797848;78;20239;-60
2022/05/16 06:03:30;;;;;;;;;;;;;;;20.39;41.06;152778.36;1797806;78;20087;-61
2022/05/16 06:06:00;;;;;;;;;;;;;;;20.56;40.63;152821.50;1797746;79;20187;-61
2022/05/16 06:08:27;;;;;;;;;;;;;;;20.73;40.23;152864.61;1798036;79;20168;-61
2022/05/16 06:10:53;;;;;;;;;;;;;;;20.79;39.75;152880.28;1797569;79;21289;-61
2022/05/16 06:13:21;;;;;;;;;;;;;;;20.89;39.83;152906.48;1797846;79;20164;-61
2022/05/16 06:15:48;;;;;;;;;;;;;;;21.04;39.76;152943.05;1797526;79;20195;-61
2022/05/16 06:18:15;;;;;;;;;;;;;;;21.21;39.65;152986.16;1797866;79;20373;-61
2022/05/16 06:20:42;;;;;;;;;;;;;;;21.32;38.92;153013.61;1797619;79;20211;-60
2022/05/16 06:23:09;;;;;;;;;;;;;;;21.46;38.63;153050.22;1794475;79;21220;-60
2022/05/16 06:25:42;;;;;;;;;;;;;;;21.62;38.35;153089.45;1783430;78;20123;-60
2022/05/16 06:28:13;;;;;;;;;;;;;;;21.80;37.82;153133.97;1769297;80;20984;-61
2022/05/16 06:30:46;;;;;;;;;;;;;;;21.96;37.59;153175.78;1772055;78;20645;-61
2022/05/16 06:33:14;;;;;;;;;;;;;;;22.13;37.66;153217.63;1772612;80;20498;-61
2022/05/16 06:35:41;;;;;;;;;;;;;;;22.25;37.17;153249.03;1768834;80;21628;-61
2022/05/16 06:38:10;;;;;;;;;;;;;;;22.21;37.07;153238.53;1786844;80;20237;-61
2022/05/16 06:40:38;;;;;;;;;;;;;;;22.21;37.25;153238.53;1786843;79;20347;-60
2022/05/16 06:43:05;;;;;;;;;;;;;;;22.36;37.08;153275.17;1781317;80;20196;-60
2022/05/16 06:45:33;;;;;;;;;;;;;;;22.50;36.81;153310.53;1780770;79;20208;-60
2022/05/16 06:48:01;;;;;;;;;;;;;;;22.67;36.59;153353.73;1776690;79;21112;-60
2022/05/16 06:50:30;;;;;;;;;;;;;;;22.85;36.06;153400.80;1771486;80;20165;-59
2022/05/16 06:53:00;;;;;;;;;;;;;;;22.85;35.57;153400.80;1783791;79;20331;-61
2022/05/16 06:55:27;;;;;;;;;;;;;;;22.84;35.34;153396.91;1780118;79;20133;-60
2022/05/16 06:57:54;;;;;;;;;;;;;;;22.81;35.33;153390.34;1781978;79;20188;-60
2022/05/16 07:00:21;;;;;;;;;;;;;;;22.79;34.98;153385.11;1781991;79;22074;-61
2022/05/16 07:02:48;;;;;;;;;;;;;;;22.79;34.79;153385.11;1778081;79;20203;-61
2022/05/16 07:05:15;;;;;;;;;;;;;;;22.74;34.69;153372.03;1772739;79;20631;-61
2022/05/16 07:07:42;;;;;;;;;;;;;;;22.79;34.79;153385.11;1763927;79;20172;-61
2022/05/16 07:10:09;;;;;;;;;;;;;;;22.85;34.47;153400.80;1781131;80;20179;-60
2022/05/16 07:12:37;;;;;;;;;;;;;;;22.86;34.07;153402.13;1781001;80;20625;-59
2022/05/16 07:15:05;;;;;;;;;;;;;;;22.84;34.13;153398.19;1776657;79;20469;-62
2022/05/16 07:17:32;;;;;;;;;;;;;;;22.83;34.21;153395.56;1781295;80;20140;-61
2022/05/16 07:19:59;;;;;;;;;;;;;;;22.91;36.08;153413.91;1766432;79;20178;-60
2022/05/16 07:22:26;;;;;;;;;;;;;;;22.86;37.29;153402.13;1778556;79;20414;-61
2022/05/16 07:24:55;;;;;;;;;;;;;;;22.77;37.81;153379.88;1782535;79;21127;-61
2022/05/16 07:30:08;;;;;;;;;;;;;;;22.84;37.46;153398.19;1772602;79;20223;-60
2022/05/16 07:32:37;;;;;;;;;;;;;;;22.79;37.64;153385.11;1766249;81;20117;-59
2022/05/16 07:35:04;;;;;;;;;;;;;;;22.75;38.24;153374.66;1766056;81;20200;-61
2022/05/16 07:37:31;;;;;;;;;;;;;;;22.84;37.97;153398.19;1765932;81;21065;-61
2022/05/16 07:39:58;;;;;;;;;;;;;;;22.91;36.62;153413.91;1765448;81;20472;-61
2022/05/16 07:42:25;;;;;;;;;;;;;;;23.00;37.05;153437.44;1762825;80;20470;-61
2022/05/16 07:44:53;;;;;;;;;;;;;;;23.03;36.76;153446.63;1769006;80;20181;-61
2022/05/16 07:47:19;;;;;;;;;;;;;;;22.93;34.74;153419.14;1783483;80;20146;-61
2022/05/16 07:49:46;;;;;;;;;;;;;;;22.77;33.78;153379.88;1779923;79;21225;-61
2022/05/16 07:52:13;;;;;;;;;;;;;;;22.57;35.71;153328.88;1781988;80;20125;-61
2022/05/16 07:54:41;;;;;;;;;;;;;;;22.50;36.77;153310.53;1780592;80;20143;-60
2022/05/16 07:57:07;;;;;;;;;;;;;;;22.41;37.59;153288.25;1777900;80;20168;-61
2022/05/16 07:59:35;;;;;;;;;;;;;;;22.47;36.39;153304.03;1777675;80;20385;-62
2022/05/16 08:02:02;;;;;;;;;;;;;;;22.60;36.05;153338.00;1780032;80;21939;-61
2022/05/16 08:04:29;;;;;;;;;;;;;;;22.73;34.92;153370.70;1783467;80;20102;-61
2022/05/16 08:06:56;;;;;;;;;;;;;;;22.88;34.47;153407.36;1783391;80;20121;-60
2022/05/16 08:12:11;;;;;;;;;;;;;;;22.88;33.65;153407.36;1768329;80;20458;-60
2022/05/16 08:14:43;;;;;;;;;;;;;;;22.87;33.73;153404.73;1761825;80;21197;-62
2022/05/16 08:17:09;;;;;;;;;;;;;;;22.85;33.35;153400.80;1755207;79;20384;-61
2022/05/16 08:19:36;;;;;;;;;;;;;;;22.70;33.67;153361.58;1777992;80;20384;-61
2022/05/16 08:22:04;;;;;;;;;;;;;;;22.58;33.93;153331.50;1777491;80;20172;-62
2022/05/16 08:24:31;;;;;;;;;;;;;;;22.60;33.82;153338.00;1780757;80;20078;-61
2022/05/16 08:27:00;;;;;;;;;;;;;;;22.54;33.54;153322.31;1782665;80;21077;-62
2022/05/16 08:29:28;;;;;;;;;;;;;;;22.39;33.71;153283.02;1783594;80;37497;-62
2022/05/16 08:31:55;;;;;;;;;;;;;;;22.32;33.74;153266.00;1764182;79;20197;-60
2022/05/16 08:34:23;;;;;;;;;;;;;;;22.36;33.90;153276.50;1776646;79;20191;-60
2022/05/16 08:42:16;;;;;;;;;;;;;;;22.65;33.87;153348.47;1726521;80;20480;-60
2022/05/16 08:45:02;;;;;;;;;;;;;;;22.66;33.87;153352.41;1778501;79;20180;-60
2022/05/16 08:47:46;;;;;;;;;;;;;;;22.71;33.66;153364.19;1769976;80;20089;-61
2022/05/16 08:50:23;;;;;;;;;;;;;;;22.72;33.56;153366.81;1772926;79;20215;-61
2022/05/16 08:52:54;;;;;;;;;;;;;;;22.64;33.73;153345.84;1754707;80;21142;-61
2022/05/16 08:55:35;;;;;;;;;;;;;;;22.68;33.57;153357.63;1744319;82;20158;-60
2022/05/16 08:58:11;;;;;;;;;;;;;;;22.69;33.94;153360.25;1780295;79;20207;-61
2022/05/16 09:00:47;;;;;;;;;;;;;;;22.66;33.66;153351.08;1761600;80;20168;-60
2022/05/16 09:03:16;;;;;;;;;;;;;;;22.59;33.77;153335.39;1776819;80;20999;-60
2022/05/16 09:05:48;;;;;;;;;;;;;;;22.68;33.85;153356.34;1778543;79;21182;-61
2022/05/16 09:08:20;;;;;;;;;;;;;;;22.85;33.91;153399.50;1777436;80;20175;-60
2022/05/16 09:10:59;;;;;;;;;;;;;;;23.04;34.51;153447.91;1776861;80;20183;-60
2022/05/16 09:13:33;;;;;;;;;;;;;;;23.02;37.27;153442.67;1763679;81;20166;-60
2022/05/16 09:16:23;;;;;;;;;;;;;;;22.76;37.83;153377.27;1763602;81;20201;-60
2022/05/16 09:19:11;;;;;;;;;;;;;;;22.76;38.15;153377.27;1766870;79;21143;-61
2022/05/16 09:21:45;;;;;;;;;;;;;;;22.88;38.30;153408.69;1767606;80;20280;-61
2022/05/16 09:24:16;;;;;;;;;;;;;;;22.95;38.66;153424.38;1728850;80;20166;-61
2022/05/16 09:26:56;;;;;;;;;;;;;;;22.94;39.13;153421.77;1764340;79;20145;-61
2022/05/16 09:29:26;;;;;;;;;;;;;;;23.01;38.67;153441.39;1774309;79;20124;-61
2022/05/16 09:31:55;;;;;;;;;;;;;;;23.12;38.00;153468.88;1772723;79;21114;-60
2022/05/16 09:34:22;;;;;;;;;;;;;;;23.22;36.97;153492.41;1769338;80;20207;-61
2022/05/16 09:36:50;;;;;;;;;;;;;;;23.29;35.62;153510.77;1777771;80;20176;-61
2022/05/16 09:39:20;;;;;;;;;;;;;;;23.24;35.37;153498.97;1778000;80;20168;-61
2022/05/16 09:42:09;;;;;;;;;;;;;;;23.30;35.89;153513.38;1774134;79;20227;-61
2022/05/16 09:44:45;;;;;;;;;;;;;;;23.34;36.02;153523.88;1744275;81;21257;-59
2022/05/16 09:47:26;;;;;;;;;;;;;;;23.30;35.28;153513.38;1786113;79;20597;-61
2022/05/16 09:50:11;;;;;;;;;;;;;;;23.25;35.25;153500.25;1788617;79;20543;-60
2022/05/16 09:52:46;;;;;;;;;;;;;;;23.22;35.34;153492.41;1799419;78;20182;-61
2022/05/16 09:55:33;;;;;;;;;;;;;;;23.23;35.57;153495.02;1794466;78;20250;-61
2022/05/16 09:58:02;;;;;;;;;;;;;;;23.31;35.75;153516.00;1800266;79;21121;-59
2022/05/16 10:00:39;;;;;;;;;;;;;;;23.44;36.15;153550.03;1798539;78;20140;-59
2022/05/16 10:03:29;;;;;;;;;;;;;;;23.58;36.11;153584.09;1793405;79;20217;-60
2022/05/16 10:05:57;;;;;;;;;;;;;;;23.65;35.40;153602.39;1795681;79;20202;-59
2022/05/16 10:08:27;;;;;;;;;;;;;;;23.60;35.72;153589.31;1799896;79;20202;-59
2022/05/16 10:10:55;;;;;;;;;;;;;;;23.52;35.41;153568.34;1792720;78;21132;-61
2022/05/16 10:13:22;;;;;;;;;;;;;;;23.52;35.08;153568.34;1762899;78;20422;-61
2022/05/16 10:15:49;;;;;;;;;;;;;;;23.42;33.86;153543.47;1770486;79;20210;-61
2022/05/16 10:18:18;;;;;;;;;;;;;;;23.29;34.19;153512.09;1803178;79;20192;-61
2022/05/16 10:20:48;;;;;;;;;;;;;;;23.21;34.03;153489.78;1816483;79;20205;-61
2022/05/16 10:23:25;;;;;;;;;;;;;;;23.11;34.94;153466.25;1813899;79;20683;-62
2022/05/16 10:25:54;;;;;;;;;;;;;;;23.10;34.75;153463.64;1816355;78;20217;-61
2022/05/16 10:28:27;;;;;;;;;;;;;;;23.08;35.43;153458.36;1814385;77;20149;-61
2022/05/16 10:33:39;;;;;;;;;;;;;;;22.99;35.84;153436.16;1765498;80;20133;-61
2022/05/16 10:36:08;;;;;;;;;;;;;;;22.91;36.20;153413.91;1801150;79;21283;-62
2022/05/16 10:38:46;;;;;;;;;;;;;;;22.84;36.86;153396.91;1766078;79;20407;-61
2022/05/16 10:41:22;;;;;;;;;;;;;;;22.82;37.19;153391.67;1785049;79;20151;-62
2022/05/16 10:44:06;;;;;;;;;;;;;;;22.79;36.26;153385.11;1741536;80;20455;-61
2022/05/16 10:46:35;;;;;;;;;;;;;;;22.75;36.22;153375.94;1765646;79;20125;-61
2022/05/16 10:49:12;;;;;;;;;;;;;;;22.74;36.51;153372.03;1766072;79;21277;-61
2022/05/16 10:51:46;;;;;;;;;;;;;;;22.70;36.61;153362.86;1735682;82;20160;-60
2022/05/16 10:54:21;;;;;;;;;;;;;;;22.68;36.15;153357.63;1736827;81;20219;-61
2022/05/16 10:57:02;;;;;;;;;;;;;;;22.62;35.92;153341.95;1737214;82;20215;-63
2022/05/16 11:00:06;;;;;;;;;;;;;;;22.50;35.74;153311.88;1737149;82;20133;-61
2022/05/16 11:02:52;;;;;;;;;;;;;;;22.40;36.83;153286.97;1736961;81;21556;-62
2022/05/16 11:05:51;;;;;;;;;;;;;;;22.38;37.62;153280.41;1736835;82;20750;-60
2022/05/16 11:08:36;;;;;;;;;;;;;;;22.38;38.09;153280.41;1763708;81;20183;-60
2022/05/16 11:11:06;;;;;;;;;;;;;;;22.33;37.75;153268.67;1767592;81;20690;-60
2022/05/16 11:13:45;;;;;;;;;;;;;;;22.35;37.93;153272.56;1766088;81;20165;-61
2022/05/16 11:16:18;;;;;;;;;;;;;;;22.37;37.49;153279.12;1766196;79;21239;-61
2022/05/16 11:18:51;;;;;;;;;;;;;;;22.28;36.96;153256.87;1749764;81;20319;-60
2022/05/16 11:21:24;;;;;;;;;;;;;;;22.31;36.99;153264.72;1762387;79;20225;-60
2022/05/16 11:24:07;;;;;;;;;;;;;;;22.37;36.34;153277.78;1772785;79;20153;-61
2022/05/16 11:26:38;;;;;;;;;;;;;;;22.36;36.02;153276.50;1752676;79;20117;-61
2022/05/16 11:29:17;;;;;;;;;;;;;;;22.40;36.76;153285.62;1773018;80;21101;-61
2022/05/16 11:32:00;;;;;;;;;;;;;;;22.37;37.64;153279.12;1769547;81;20255;-61
2022/05/16 11:34:43;;;;;;;;;;;;;;;22.33;37.47;153269.95;1765154;79;20288;-61
2022/05/16 11:37:25;;;;;;;;;;;;;;;22.31;37.14;153263.39;1771660;79;20216;-66
2022/05/16 11:39:55;;;;;;;;;;;;;;;22.23;37.26;153243.81;1737179;82;20855;-61
2022/05/16 11:42:49;;;;;;;;;;;;;;;22.17;38.04;153228.09;1748729;81;21146;-62
2022/05/16 11:45:50;;;;;;;;;;;;;;;22.08;38.53;153205.84;1767695;81;20141;-62
2022/05/16 11:48:36;;;;;;;;;;;;;;;21.97;39.03;153177.11;1767705;81;20208;-61
2022/05/16 11:51:21;;;;;;;;;;;;;;;21.95;39.43;153173.16;1767304;81;20133;-61
2022/05/16 11:53:53;;;;;;;;;;;;;;;21.95;39.08;153173.16;1767087;81;20212;-59
2022/05/16 12:02:28;;;;;;;;;;;;;;;22.07;39.60;153201.95;1767563;81;20528;-61
2022/05/16 12:05:24;;;;;;;;;;;;;;;22.12;38.93;153216.34;1766724;79;20461;-61
2022/05/16 12:08:05;;;;;;;;;;;;;;;22.11;38.96;153212.41;1766733;81;20258;-61
2022/05/16 12:10:33;;;;;;;;;;;;;;;22.04;38.23;153195.39;1767279;79;21224;-60
2022/05/16 12:13:24;;;;;;;;;;;;;;;21.94;38.16;153170.55;1737755;81;20139;-61
2022/05/16 12:16:12;;;;;;;;;;;;;;;21.86;38.92;153149.66;1736947;81;20151;-61
2022/05/16 12:18:58;;;;;;;;;;;;;;;21.82;39.24;153139.19;1736698;81;20132;-61
2022/05/16 12:21:32;;;;;;;;;;;;;;;21.82;39.76;153140.47;1737261;82;20177;-60
2022/05/16 12:24:09;;;;;;;;;;;;;;;21.88;40.25;153154.88;1736831;82;21456;-61
2022/05/16 12:26:50;;;;;;;;;;;;;;;21.95;40.84;153173.16;1763713;81;20230;-61
2022/05/16 12:29:21;;;;;;;;;;;;;;;21.99;41.03;153183.61;1755555;81;20250;-60
2022/05/16 12:31:51;;;;;;;;;;;;;;;22.07;41.05;153201.95;1768746;81;20151;-62
2022/05/16 12:34:31;;;;;;;;;;;;;;;22.10;41.57;153209.80;1767582;79;20247;-61
2022/05/16 12:37:09;;;;;;;;;;;;;;;22.12;41.89;153216.34;1766345;81;21978;-62
2022/05/16 12:39:52;;;;;;;;;;;;;;;22.21;41.43;153238.53;1760708;80;20284;-62
2022/05/16 12:42:46;;;;;;;;;;;;;;;22.20;40.56;153234.64;1767322;81;20176;-62
2022/05/16 12:45:21;;;;;;;;;;;;;;;22.12;40.42;153216.34;1759233;80;20503;-61
2022/05/16 12:47:56;;;;;;;;;;;;;;;22.03;39.95;153194.11;1780501;80;20215;-61
2022/05/16 12:50:47;;;;;;;;;;;;;;;21.94;40.93;153170.55;1752463;82;21097;-61
2022/05/16 12:53:45;;;;;;;;;;;;;;;21.88;42.01;153156.20;1745884;82;20660;-62
2022/05/16 12:56:24;;;;;;;;;;;;;;;21.88;42.82;153156.20;1752067;82;20186;-61
2022/05/16 12:59:10;;;;;;;;;;;;;;;21.85;41.75;153147.03;1751990;81;20516;-60
2022/05/16 13:01:50;;;;;;;;;;;;;;;21.80;41.10;153135.25;1752310;82;20114;-62
2022/05/16 13:04:37;;;;;;;;;;;;;;;21.71;40.75;153113.02;1758134;81;21016;-61
2022/05/16 13:07:20;;;;;;;;;;;;;;;21.69;40.61;153106.52;1761825;81;20198;-60
2022/05/16 13:09:54;;;;;;;;;;;;;;;21.65;39.81;153097.34;1761680;81;20201;-61
2022/05/16 13:12:45;;;;;;;;;;;;;;;21.60;39.91;153084.23;1760652;81;20177;-61
2022/05/16 13:15:24;;;;;;;;;;;;;;;21.57;39.80;153076.39;1762146;81;20169;-60
2022/05/16 13:17:53;;;;;;;;;;;;;;;21.58;40.81;153079.00;1761818;81;21135;-60
2022/05/16 13:20:23;;;;;;;;;;;;;;;21.54;40.58;153068.50;1762124;80;20180;-61
2022/05/16 13:22:50;;;;;;;;;;;;;;;21.50;40.95;153058.06;1759502;81;20157;-61
2022/05/16 13:25:18;;;;;;;;;;;;;;;21.39;41.57;153031.94;1761861;80;20178;-60
2022/05/16 13:30:36;;;;;;;;;;;;;;;21.24;42.02;152994.05;1762340;80;21278;-62
2022/05/16 13:33:08;;;;;;;;;;;;;;;21.20;42.89;152982.27;1761283;80;20417;-60
2022/05/16 13:35:37;;;;;;;;;;;;;;;21.21;43.75;152984.88;1761318;81;20082;-61
2022/05/16 13:38:07;;;;;;;;;;;;;;;21.20;44.98;152982.27;1761789;81;20156;-63
2022/05/16 13:40:41;;;;;;;;;;;;;;;21.16;46.63;152974.42;1760159;81;20213;-61